sensor_id;sensor_type;location;lat;lon;timestamp;temperature;humidity
47514;DHT22;33951;51.988;5.910;2023-04-25T04:12:06;5.30;99.90
47514;DHT22;33951;51.988;5.910;2023-04-25T04:15:37;5.40;99.90
47514;DHT22;33951;51.988;5.910;2023-04-25T04:25:37;5.10;99.90
47514;DHT22;33951;51.988;5.910;2023-04-25T04:39:15;4.70;99.90
47514;DHT22;33951;51.988;5.910;2023-04-25T04:42:24;4.70;99.90
47514;DHT22;33951;51.988;5.910;2023-04-25T04:51:56;4.70;99.90
47514;DHT22;33951;51.988;5.910;2023-04-25T04:58:17;4.80;99.90
47514;DHT22;33951;51.988;5.910;2023-04-25T05:04:49;4.90;99.90
47514;DHT22;33951;51.988;5.910;2023-04-25T05:14:49;5.50;99.90
47514;DHT22;33951;51.988;5.910;2023-04-25T05:17:42;5.70;99.90
47514;DHT22;33951;51.988;5.910;2023-04-25T05:20:38;5.70;99.90
47514;DHT22;33951;51.988;5.910;2023-04-25T05:23:57;5.60;99.90
47514;DHT22;33951;51.988;5.910;2023-04-25T05:33:46;5.70;99.90
47514;DHT22;33951;51.988;5.910;2023-04-25T05:46:47;5.50;99.90
47514;DHT22;33951;51.988;5.910;2023-04-25T05:50:12;5.60;99.90
47514;DHT22;33951;51.988;5.910;2023-04-25T05:56:32;5.70;99.90
47514;DHT22;33951;51.988;5.910;2023-04-25T05:59:04;5.80;99.90
47514;DHT22;33951;51.988;5.910;2023-04-25T06:10:56;6.20;99.90
47514;DHT22;33951;51.988;5.910;2023-04-25T06:57:57;7.10;99.90
47514;DHT22;33951;51.988;5.910;2023-04-25T07:00:30;7.00;99.90
47514;DHT22;33951;51.988;5.910;2023-04-25T07:03:01;6.90;99.90
47514;DHT22;33951;51.988;5.910;2023-04-25T07:05:32;6.80;99.90
47514;DHT22;33951;51.988;5.910;2023-04-25T07:08:08;6.90;99.90
47514;DHT22;33951;51.988;5.910;2023-04-25T07:10:33;6.90;99.90
47514;DHT22;33951;51.988;5.910;2023-04-25T07:13:02;7.10;99.90
47514;DHT22;33951;51.988;5.910;2023-04-25T07:15:37;7.00;99.90
47514;DHT22;33951;51.988;5.910;2023-04-25T07:18:09;7.10;99.90
47514;DHT22;33951;51.988;5.910;2023-04-25T07:20:40;7.10;99.90
47514;DHT22;33951;51.988;5.910;2023-04-25T07:23:08;7.10;99.90
47514;DHT22;33951;51.988;5.910;2023-04-25T07:25:49;7.20;99.90
47514;DHT22;33951;51.988;5.910;2023-04-25T07:28:17;7.20;99.90
47514;DHT22;33951;51.988;5.910;2023-04-25T07:30:43;7.30;99.90
47514;DHT22;33951;51.988;5.910;2023-04-25T07:33:09;7.30;99.90
47514;DHT22;33951;51.988;5.910;2023-04-25T07:35:35;7.30;99.90
47514;DHT22;33951;51.988;5.910;2023-04-25T07:38:06;7.40;99.90
47514;DHT22;33951;51.988;5.910;2023-04-25T07:40:33;7.60;99.90
47514;DHT22;33951;51.988;5.910;2023-04-25T07:43:07;7.90;99.90
47514;DHT22;33951;51.988;5.910;2023-04-25T07:45:33;8.00;99.90
47514;DHT22;33951;51.988;5.910;2023-04-25T07:48:04;7.90;99.90
47514;DHT22;33951;51.988;5.910;2023-04-25T07:50:43;8.10;99.90
47514;DHT22;33951;51.988;5.910;2023-04-25T07:53:09;8.30;99.90
47514;DHT22;33951;51.988;5.910;2023-04-25T07:55:35;8.40;99.90
47514;DHT22;33951;51.988;5.910;2023-04-25T07:58:04;8.50;99.90
47514;DHT22;33951;51.988;5.910;2023-04-25T08:00:38;8.50;99.90
47514;DHT22;33951;51.988;5.910;2023-04-25T08:03:07;8.50;99.90
47514;DHT22;33951;51.988;5.910;2023-04-25T08:05:38;8.50;99.90
47514;DHT22;33951;51.988;5.910;2023-04-25T08:08:03;8.40;99.90
47514;DHT22;33951;51.988;5.910;2023-04-25T08:10:35;8.10;99.90
47514;DHT22;33951;51.988;5.910;2023-04-25T08:13:03;8.00;99.90
47514;DHT22;33951;51.988;5.910;2023-04-25T08:15:33;8.00;99.90
47514;DHT22;33951;51.988;5.910;2023-04-25T08:18:01;8.00;99.90
47514;DHT22;33951;51.988;5.910;2023-04-25T08:20:36;8.10;99.90
47514;DHT22;33951;51.988;5.910;2023-04-25T08:23:08;8.00;99.90
47514;DHT22;33951;51.988;5.910;2023-04-25T08:25:39;8.10;99.90
47514;DHT22;33951;51.988;5.910;2023-04-25T08:28:07;8.30;99.90
47514;DHT22;33951;51.988;5.910;2023-04-25T08:30:41;8.40;99.90
47514;DHT22;33951;51.988;5.910;2023-04-25T08:33:07;8.30;99.90
47514;DHT22;33951;51.988;5.910;2023-04-25T08:35:37;8.40;99.90
47514;DHT22;33951;51.988;5.910;2023-04-25T08:38:10;8.50;99.90
47514;DHT22;33951;51.988;5.910;2023-04-25T08:40:38;8.60;99.90
47514;DHT22;33951;51.988;5.910;2023-04-25T08:43:15;8.70;99.90
47514;DHT22;33951;51.988;5.910;2023-04-25T08:45:44;8.80;99.90
47514;DHT22;33951;51.988;5.910;2023-04-25T08:48:13;8.70;99.90
47514;DHT22;33951;51.988;5.910;2023-04-25T08:51:02;8.70;99.90
47514;DHT22;33951;51.988;5.910;2023-04-25T08:53:30;8.80;99.90
47514;DHT22;33951;51.988;5.910;2023-04-25T08:55:58;8.80;99.90
47514;DHT22;33951;51.988;5.910;2023-04-25T08:58:24;8.80;99.90
47514;DHT22;33951;51.988;5.910;2023-04-25T09:00:54;8.90;99.90
47514;DHT22;33951;51.988;5.910;2023-04-25T09:03:35;8.90;99.90
47514;DHT22;33951;51.988;5.910;2023-04-25T09:06:15;9.10;99.90
47514;DHT22;33951;51.988;5.910;2023-04-25T09:08:45;9.20;99.90
47514;DHT22;33951;51.988;5.910;2023-04-25T09:11:39;9.00;99.90
47514;DHT22;33951;51.988;5.910;2023-04-25T09:14:14;9.00;99.90
47514;DHT22;33951;51.988;5.910;2023-04-25T09:17:01;8.90;99.90
47514;DHT22;33951;51.988;5.910;2023-04-25T09:19:37;8.50;99.90
47514;DHT22;33951;51.988;5.910;2023-04-25T09:22:05;8.40;99.90
47514;DHT22;33951;51.988;5.910;2023-04-25T09:27:06;8.50;99.90
47514;DHT22;33951;51.988;5.910;2023-04-25T09:29:42;8.50;99.90
47514;DHT22;33951;51.988;5.910;2023-04-25T09:32:22;8.60;99.90
47514;DHT22;33951;51.988;5.910;2023-04-25T09:34:55;8.50;99.90
47514;DHT22;33951;51.988;5.910;2023-04-25T09:37:28;8.50;99.90
47514;DHT22;33951;51.988;5.910;2023-04-25T09:39:59;8.30;99.90
47514;DHT22;33951;51.988;5.910;2023-04-25T09:42:26;8.20;99.90
47514;DHT22;33951;51.988;5.910;2023-04-25T09:44:55;8.10;99.90
47514;DHT22;33951;51.988;5.910;2023-04-25T09:47:23;8.00;99.90
47514;DHT22;33951;51.988;5.910;2023-04-25T09:49:56;8.20;99.90
47514;DHT22;33951;51.988;5.910;2023-04-25T09:52:28;8.40;99.90
47514;DHT22;33951;51.988;5.910;2023-04-25T09:54:59;8.70;99.90
47514;DHT22;33951;51.988;5.910;2023-04-25T09:57:28;8.80;99.90
47514;DHT22;33951;51.988;5.910;2023-04-25T09:59:55;9.00;99.90
47514;DHT22;33951;51.988;5.910;2023-04-25T10:02:28;9.10;99.90
47514;DHT22;33951;51.988;5.910;2023-04-25T10:04:55;9.30;99.90
47514;DHT22;33951;51.988;5.910;2023-04-25T10:07:43;9.40;99.90
47514;DHT22;33951;51.988;5.910;2023-04-25T10:10:17;9.80;99.90
47514;DHT22;33951;51.988;5.910;2023-04-25T10:12:51;9.90;99.90
47514;DHT22;33951;51.988;5.910;2023-04-25T10:15:21;9.90;99.90
47514;DHT22;33951;51.988;5.910;2023-04-25T10:17:53;9.50;99.90
47514;DHT22;33951;51.988;5.910;2023-04-25T10:20:19;9.40;99.90
47514;DHT22;33951;51.988;5.910;2023-04-25T10:22:48;9.50;99.90
47514;DHT22;33951;51.988;5.910;2023-04-25T10:25:22;9.40;99.90
47514;DHT22;33951;51.988;5.910;2023-04-25T10:27:53;9.60;99.90
47514;DHT22;33951;51.988;5.910;2023-04-25T10:30:21;9.60;99.90
47514;DHT22;33951;51.988;5.910;2023-04-25T10:32:49;9.50;99.90
47514;DHT22;33951;51.988;5.910;2023-04-25T10:35:18;9.40;99.90
47514;DHT22;33951;51.988;5.910;2023-04-25T10:38:03;9.30;99.90
47514;DHT22;33951;51.988;5.910;2023-04-25T10:40:34;9.40;99.90
47514;DHT22;33951;51.988;5.910;2023-04-25T10:45:59;9.00;99.90
47514;DHT22;33951;51.988;5.910;2023-04-25T10:48:30;9.00;99.90
47514;DHT22;33951;51.988;5.910;2023-04-25T10:53:36;9.20;99.90
47514;DHT22;33951;51.988;5.910;2023-04-25T10:56:18;9.50;99.90
47514;DHT22;33951;51.988;5.910;2023-04-25T10:58:48;9.90;99.90
47514;DHT22;33951;51.988;5.910;2023-04-25T11:01:15;10.20;99.90
47514;DHT22;33951;51.988;5.910;2023-04-25T11:03:56;10.40;99.90
47514;DHT22;33951;51.988;5.910;2023-04-25T11:06:51;10.50;99.90
47514;DHT22;33951;51.988;5.910;2023-04-25T11:09:24;10.70;99.90
47514;DHT22;33951;51.988;5.910;2023-04-25T11:11:57;10.60;99.90
47514;DHT22;33951;51.988;5.910;2023-04-25T11:14:44;10.60;99.90
47514;DHT22;33951;51.988;5.910;2023-04-25T11:17:12;10.50;99.90
47514;DHT22;33951;51.988;5.910;2023-04-25T11:19:54;10.40;99.90
47514;DHT22;33951;51.988;5.910;2023-04-25T11:22:21;10.60;99.90
47514;DHT22;33951;51.988;5.910;2023-04-25T11:24:56;11.00;99.90
47514;DHT22;33951;51.988;5.910;2023-04-25T11:27:24;11.20;99.90
47514;DHT22;33951;51.988;5.910;2023-04-25T11:29:50;10.90;99.90
47514;DHT22;33951;51.988;5.910;2023-04-25T11:32:17;10.70;99.90
47514;DHT22;33951;51.988;5.910;2023-04-25T11:34:52;10.90;99.90
47514;DHT22;33951;51.988;5.910;2023-04-25T11:37:18;11.30;99.90
47514;DHT22;33951;51.988;5.910;2023-04-25T11:39:51;11.30;99.90
47514;DHT22;33951;51.988;5.910;2023-04-25T11:42:17;11.50;99.90
47514;DHT22;33951;51.988;5.910;2023-04-25T11:44:47;11.90;99.90
47514;DHT22;33951;51.988;5.910;2023-04-25T11:47:13;12.30;99.90
47514;DHT22;33951;51.988;5.910;2023-04-25T11:49:41;13.00;99.90
47514;DHT22;33951;51.988;5.910;2023-04-25T11:52:07;13.30;99.90
47514;DHT22;33951;51.988;5.910;2023-04-25T11:54:38;13.20;99.90
47514;DHT22;33951;51.988;5.910;2023-04-25T11:57:06;13.40;99.90
47514;DHT22;33951;51.988;5.910;2023-04-25T11:59:32;13.90;99.90
47514;DHT22;33951;51.988;5.910;2023-04-25T12:01:58;14.30;99.90
47514;DHT22;33951;51.988;5.910;2023-04-25T12:04:25;14.30;98.70
47514;DHT22;33951;51.988;5.910;2023-04-25T12:06:54;13.90;99.90
47514;DHT22;33951;51.988;5.910;2023-04-25T12:09:29;13.90;99.70
47514;DHT22;33951;51.988;5.910;2023-04-25T12:11:59;13.10;98.90
47514;DHT22;33951;51.988;5.910;2023-04-25T12:14:33;12.10;99.90
47514;DHT22;33951;51.988;5.910;2023-04-25T12:17:01;11.50;99.90
47514;DHT22;33951;51.988;5.910;2023-04-25T12:19:35;11.10;99.90
47514;DHT22;33951;51.988;5.910;2023-04-25T12:22:10;10.70;99.90
47514;DHT22;33951;51.988;5.910;2023-04-25T12:24:46;10.10;99.90
47514;DHT22;33951;51.988;5.910;2023-04-25T12:27:16;9.60;99.90
47514;DHT22;33951;51.988;5.910;2023-04-25T12:29:54;9.40;99.90
47514;DHT22;33951;51.988;5.910;2023-04-25T12:32:20;9.30;99.90
47514;DHT22;33951;51.988;5.910;2023-04-25T12:34:46;9.50;99.90
47514;DHT22;33951;51.988;5.910;2023-04-25T12:37:12;9.50;99.90
47514;DHT22;33951;51.988;5.910;2023-04-25T12:39:41;9.40;99.90
47514;DHT22;33951;51.988;5.910;2023-04-25T12:42:09;9.30;99.90
47514;DHT22;33951;51.988;5.910;2023-04-25T12:44:38;9.20;99.90
47514;DHT22;33951;51.988;5.910;2023-04-25T12:47:06;9.10;99.90
47514;DHT22;33951;51.988;5.910;2023-04-25T12:49:35;9.20;99.90
47514;DHT22;33951;51.988;5.910;2023-04-25T12:52:01;9.20;99.90
47514;DHT22;33951;51.988;5.910;2023-04-25T12:54:29;9.30;99.90
47514;DHT22;33951;51.988;5.910;2023-04-25T14:20:17;12.30;99.90
47514;DHT22;33951;51.988;5.910;2023-04-25T14:40:16;10.90;99.90
47514;DHT22;33951;51.988;5.910;2023-04-25T14:43:00;11.20;99.90
47514;DHT22;33951;51.988;5.910;2023-04-25T14:45:28;11.30;99.90
47514;DHT22;33951;51.988;5.910;2023-04-25T14:47:54;11.50;99.90
47514;DHT22;33951;51.988;5.910;2023-04-25T14:50:23;11.80;99.90
47514;DHT22;33951;51.988;5.910;2023-04-25T14:52:48;12.20;99.90
47514;DHT22;33951;51.988;5.910;2023-04-25T14:55:17;12.00;98.80
47514;DHT22;33951;51.988;5.910;2023-04-25T14:57:43;11.70;99.90
47514;DHT22;33951;51.988;5.910;2023-04-25T15:00:11;11.40;99.90
47514;DHT22;33951;51.988;5.910;2023-04-25T15:02:43;11.30;99.90
47514;DHT22;33951;51.988;5.910;2023-04-25T15:05:11;11.10;99.90
47514;DHT22;33951;51.988;5.910;2023-04-25T15:07:37;10.80;99.90
47514;DHT22;33951;51.988;5.910;2023-04-25T15:10:08;10.80;99.90
47514;DHT22;33951;51.988;5.910;2023-04-25T15:12:42;10.70;99.90
47514;DHT22;33951;51.988;5.910;2023-04-25T15:15:11;10.50;99.90
47514;DHT22;33951;51.988;5.910;2023-04-25T15:17:53;10.50;99.90
47514;DHT22;33951;51.988;5.910;2023-04-25T15:20:20;10.80;99.90
47514;DHT22;33951;51.988;5.910;2023-04-25T15:22:52;11.00;99.90
47514;DHT22;33951;51.988;5.910;2023-04-25T15:25:23;11.10;99.90
47514;DHT22;33951;51.988;5.910;2023-04-25T15:27:48;11.10;99.90
47514;DHT22;33951;51.988;5.910;2023-04-25T15:30:15;10.90;99.90
47514;DHT22;33951;51.988;5.910;2023-04-25T15:32:45;10.60;99.90
47514;DHT22;33951;51.988;5.910;2023-04-25T15:35:11;10.30;99.90
47514;DHT22;33951;51.988;5.910;2023-04-25T15:37:37;10.00;99.90
47514;DHT22;33951;51.988;5.910;2023-04-25T15:40:09;9.80;99.90
47514;DHT22;33951;51.988;5.910;2023-04-25T15:42:37;9.80;99.90
47514;DHT22;33951;51.988;5.910;2023-04-25T15:45:04;9.70;99.90
47514;DHT22;33951;51.988;5.910;2023-04-25T15:47:33;9.60;99.90
47514;DHT22;33951;51.988;5.910;2023-04-25T15:49:59;9.60;99.90
47514;DHT22;33951;51.988;5.910;2023-04-25T15:52:26;9.70;99.90
47514;DHT22;33951;51.988;5.910;2023-04-25T15:55:06;10.00;99.90
47514;DHT22;33951;51.988;5.910;2023-04-25T15:57:41;10.10;99.90
47514;DHT22;33951;51.988;5.910;2023-04-25T16:00:15;10.60;99.90
47514;DHT22;33951;51.988;5.910;2023-04-25T16:02:57;10.90;99.90
47514;DHT22;33951;51.988;5.910;2023-04-25T16:06:15;11.00;99.90
47514;DHT22;33951;51.988;5.910;2023-04-25T16:08:53;11.10;99.90
47514;DHT22;33951;51.988;5.910;2023-04-25T16:11:21;11.20;99.90
47514;DHT22;33951;51.988;5.910;2023-04-25T16:13:49;11.10;99.90
47514;DHT22;33951;51.988;5.910;2023-04-25T16:16:17;11.30;99.90
47514;DHT22;33951;51.988;5.910;2023-04-25T16:18:43;11.30;99.90
47514;DHT22;33951;51.988;5.910;2023-04-25T16:21:09;11.30;99.70
47514;DHT22;33951;51.988;5.910;2023-04-25T16:23:39;11.10;99.90
47514;DHT22;33951;51.988;5.910;2023-04-25T16:26:05;11.20;99.90
47514;DHT22;33951;51.988;5.910;2023-04-25T16:28:31;11.40;99.90
47514;DHT22;33951;51.988;5.910;2023-04-25T16:30:57;11.60;99.70
47514;DHT22;33951;51.988;5.910;2023-04-25T16:33:25;11.90;99.50
47514;DHT22;33951;51.988;5.910;2023-04-25T16:35:56;12.00;99.10
47514;DHT22;33951;51.988;5.910;2023-04-25T16:38:24;12.30;99.50
47514;DHT22;33951;51.988;5.910;2023-04-25T16:40:50;12.80;98.90
47514;DHT22;33951;51.988;5.910;2023-04-25T16:43:57;13.00;98.90
47514;DHT22;33951;51.988;5.910;2023-04-25T16:49:18;12.50;99.90
47514;DHT22;33951;51.988;5.910;2023-04-25T16:52:31;12.70;99.90
47514;DHT22;33951;51.988;5.910;2023-04-25T16:54:52;12.60;99.90
47514;DHT22;33951;51.988;5.910;2023-04-25T16:57:38;12.60;99.90
47514;DHT22;33951;51.988;5.910;2023-04-25T17:00:20;12.60;99.90
47514;DHT22;33951;51.988;5.910;2023-04-25T17:02:54;12.30;99.90
47514;DHT22;33951;51.988;5.910;2023-04-25T17:05:23;12.00;99.90
47514;DHT22;33951;51.988;5.910;2023-04-25T17:07:54;11.80;99.90
47514;DHT22;33951;51.988;5.910;2023-04-25T17:10:40;11.60;99.90
47514;DHT22;33951;51.988;5.910;2023-04-25T17:13:11;11.20;99.90
47514;DHT22;33951;51.988;5.910;2023-04-25T17:15:39;10.80;99.90
47514;DHT22;33951;51.988;5.910;2023-04-25T17:18:05;10.60;99.90
47514;DHT22;33951;51.988;5.910;2023-04-25T17:20:31;10.60;99.90
47514;DHT22;33951;51.988;5.910;2023-04-25T17:22:57;10.50;99.90
47514;DHT22;33951;51.988;5.910;2023-04-25T17:25:22;10.60;99.90
47514;DHT22;33951;51.988;5.910;2023-04-25T17:27:51;10.50;99.90
47514;DHT22;33951;51.988;5.910;2023-04-25T17:30:20;10.30;99.90
47514;DHT22;33951;51.988;5.910;2023-04-25T17:32:51;10.20;99.90
47514;DHT22;33951;51.988;5.910;2023-04-25T17:35:17;9.80;99.90
47514;DHT22;33951;51.988;5.910;2023-04-25T17:37:46;9.70;99.90
47514;DHT22;33951;51.988;5.910;2023-04-25T17:40:13;9.50;99.90
47514;DHT22;33951;51.988;5.910;2023-04-25T17:42:39;9.60;99.90
47514;DHT22;33951;51.988;5.910;2023-04-25T17:45:06;9.60;99.90
47514;DHT22;33951;51.988;5.910;2023-04-25T17:47:32;9.60;99.90
47514;DHT22;33951;51.988;5.910;2023-04-25T17:50:04;9.40;99.90
47514;DHT22;33951;51.988;5.910;2023-04-25T17:52:30;9.40;99.90
47514;DHT22;33951;51.988;5.910;2023-04-25T17:54:57;9.30;99.90
47514;DHT22;33951;51.988;5.910;2023-04-25T17:57:22;9.40;99.90
47514;DHT22;33951;51.988;5.910;2023-04-25T17:59:49;9.40;99.90
47514;DHT22;33951;51.988;5.910;2023-04-25T18:02:18;9.40;99.90
47514;DHT22;33951;51.988;5.910;2023-04-25T18:04:44;9.40;99.90
47514;DHT22;33951;51.988;5.910;2023-04-25T18:07:12;9.30;99.90
47514;DHT22;33951;51.988;5.910;2023-04-25T18:09:38;9.30;99.90
47514;DHT22;33951;51.988;5.910;2023-04-25T18:12:10;9.20;99.90
47514;DHT22;33951;51.988;5.910;2023-04-25T18:14:38;9.20;99.90
47514;DHT22;33951;51.988;5.910;2023-04-25T18:17:04;9.40;99.90
47514;DHT22;33951;51.988;5.910;2023-04-25T18:19:33;9.30;99.90
47514;DHT22;33951;51.988;5.910;2023-04-25T18:22:06;9.30;99.90
47514;DHT22;33951;51.988;5.910;2023-04-25T18:24:32;9.20;99.90
47514;DHT22;33951;51.988;5.910;2023-04-25T18:26:59;9.20;99.90
47514;DHT22;33951;51.988;5.910;2023-04-25T18:29:29;9.30;99.90
47514;DHT22;33951;51.988;5.910;2023-04-25T18:31:55;9.30;99.90
47514;DHT22;33951;51.988;5.910;2023-04-25T18:34:21;9.30;99.90
47514;DHT22;33951;51.988;5.910;2023-04-25T18:36:48;9.40;99.90
47514;DHT22;33951;51.988;5.910;2023-04-25T18:39:19;9.20;99.90
47514;DHT22;33951;51.988;5.910;2023-04-25T18:41:48;9.10;99.90
47514;DHT22;33951;51.988;5.910;2023-04-25T18:44:14;8.90;99.90
47514;DHT22;33951;51.988;5.910;2023-04-25T18:47:08;8.90;99.90
47514;DHT22;33951;51.988;5.910;2023-04-25T18:49:34;8.60;99.90
47514;DHT22;33951;51.988;5.910;2023-04-25T18:52:38;8.40;99.90
47514;DHT22;33951;51.988;5.910;2023-04-25T18:55:28;8.20;99.90
47514;DHT22;33951;51.988;5.910;2023-04-25T18:57:57;8.10;99.90
47514;DHT22;33951;51.988;5.910;2023-04-25T19:00:28;8.00;99.90
47514;DHT22;33951;51.988;5.910;2023-04-25T19:03:02;8.00;99.90
47514;DHT22;33951;51.988;5.910;2023-04-25T19:05:40;7.90;99.90
47514;DHT22;33951;51.988;5.910;2023-04-25T19:08:06;8.00;99.90
47514;DHT22;33951;51.988;5.910;2023-04-25T19:10:34;8.00;99.90
47514;DHT22;33951;51.988;5.910;2023-04-25T19:13:01;8.10;99.90
47514;DHT22;33951;51.988;5.910;2023-04-25T19:15:26;8.10;99.90
47514;DHT22;33951;51.988;5.910;2023-04-25T19:17:52;8.00;99.90
47514;DHT22;33951;51.988;5.910;2023-04-25T19:20:18;8.00;99.90
47514;DHT22;33951;51.988;5.910;2023-04-25T19:22:45;7.80;99.90
47514;DHT22;33951;51.988;5.910;2023-04-25T19:25:11;7.90;99.90
47514;DHT22;33951;51.988;5.910;2023-04-25T19:27:42;7.90;99.90
47514;DHT22;33951;51.988;5.910;2023-04-25T19:30:11;7.80;99.90
47514;DHT22;33951;51.988;5.910;2023-04-25T19:32:39;7.40;99.90
47514;DHT22;33951;51.988;5.910;2023-04-25T19:35:10;7.20;99.90
47514;DHT22;33951;51.988;5.910;2023-04-25T19:37:36;7.20;99.90
47514;DHT22;33951;51.988;5.910;2023-04-25T19:40:03;7.10;99.90
47514;DHT22;33951;51.988;5.910;2023-04-25T19:42:36;7.10;99.90
47514;DHT22;33951;51.988;5.910;2023-04-25T19:45:06;7.10;99.90
47514;DHT22;33951;51.988;5.910;2023-04-25T19:47:34;7.30;99.90
47514;DHT22;33951;51.988;5.910;2023-04-25T19:50:07;7.40;99.90
47514;DHT22;33951;51.988;5.910;2023-04-25T19:52:37;7.30;99.90
47514;DHT22;33951;51.988;5.910;2023-04-25T19:55:03;7.30;99.90
47514;DHT22;33951;51.988;5.910;2023-04-25T19:57:35;7.10;99.90
47514;DHT22;33951;51.988;5.910;2023-04-25T20:00:11;7.10;99.90
47514;DHT22;33951;51.988;5.910;2023-04-25T20:02:46;7.20;99.90
47514;DHT22;33951;51.988;5.910;2023-04-25T20:05:15;7.30;99.90
47514;DHT22;33951;51.988;5.910;2023-04-25T20:07:41;7.30;99.90
47514;DHT22;33951;51.988;5.910;2023-04-25T20:10:09;7.20;99.90
47514;DHT22;33951;51.988;5.910;2023-04-25T20:12:39;7.20;99.90
47514;DHT22;33951;51.988;5.910;2023-04-25T20:15:10;7.30;99.90
47514;DHT22;33951;51.988;5.910;2023-04-25T20:17:38;7.20;99.90
47514;DHT22;33951;51.988;5.910;2023-04-25T20:20:04;7.20;99.90
47514;DHT22;33951;51.988;5.910;2023-04-25T20:22:31;7.00;99.90
47514;DHT22;33951;51.988;5.910;2023-04-25T20:25:05;6.90;99.90
47514;DHT22;33951;51.988;5.910;2023-04-25T20:27:35;6.80;99.90
47514;DHT22;33951;51.988;5.910;2023-04-25T20:30:10;6.80;99.90
47514;DHT22;33951;51.988;5.910;2023-04-25T20:32:40;6.70;99.90
47514;DHT22;33951;51.988;5.910;2023-04-25T20:35:06;6.50;99.90
47514;DHT22;33951;51.988;5.910;2023-04-25T20:37:38;6.50;99.90
47514;DHT22;33951;51.988;5.910;2023-04-25T20:40:06;6.30;99.90
47514;DHT22;33951;51.988;5.910;2023-04-25T20:58:11;6.30;99.90
47514;DHT22;33951;51.988;5.910;2023-04-25T21:04:05;6.20;99.90
47514;DHT22;33951;51.988;5.910;2023-04-25T21:13:19;5.90;99.90
47514;DHT22;33951;51.988;5.910;2023-04-25T21:41:10;5.50;99.90
47514;DHT22;33951;51.988;5.910;2023-04-25T21:48:29;5.60;99.90
47514;DHT22;33951;51.988;5.910;2023-04-25T21:51:34;5.60;99.90
47514;DHT22;33951;51.988;5.910;2023-04-25T21:58:38;5.50;99.90
47514;DHT22;33951;51.988;5.910;2023-04-25T22:34:06;5.30;99.90
47514;DHT22;33951;51.988;5.910;2023-04-25T22:37:24;5.00;99.90
47514;DHT22;33951;51.988;5.910;2023-04-25T22:50:43;4.90;99.90
47514;DHT22;33951;51.988;5.910;2023-04-25T23:00:31;5.00;99.90
47514;DHT22;33951;51.988;5.910;2023-04-25T23:17:33;4.90;99.90
